Time;durP1;ratioP1;P1;durP2;ratioP2;P2;SDS_P1;SDS_P2;PMS_P1;PMS_P2;Temp;Humidity;BMP_temperature;BMP_pressure;BME280_temperature;BME280_humidity;BME280_pressure;Samples;Min_cycle;Max_cycle;Signal;HPM_P1;HPM_P2
2023/10/27 00:00:51;;;;;;;6.05;2.60;;;;;;;8.35;79.15;97557.38;4963950;28;20046;-47
2023/10/27 00:03:18;;;;;;;7.72;1.90;;;;;;;8.33;78.99;97563.50;4964473;28;20515;-49
2023/10/27 00:05:45;;;;;;;7.43;3.28;;;;;;;8.30;78.64;97558.44;4969370;28;20051;-48
2023/10/27 00:08:13;;;;;;;16.23;3.58;;;;;;;8.28;78.55;97545.59;4972547;28;20047;-43
2023/10/27 00:10:40;;;;;;;9.93;3.50;;;;;;;8.28;79.76;97555.09;4974912;28;20042;-52
2023/10/27 00:13:07;;;;;;;4.30;1.67;;;;;;;8.28;79.13;97555.09;4973018;28;20061;-44
2023/10/27 00:15:34;;;;;;;9.65;2.60;;;;;;;8.26;79.11;97556.84;4982175;28;20047;-50
2023/10/27 00:18:01;;;;;;;6.38;3.05;;;;;;;8.25;79.30;97550.03;4989414;28;20050;-54
2023/10/27 00:20:28;;;;;;;5.45;3.55;;;;;;;8.22;79.25;97554.41;4991054;28;20042;-48
2023/10/27 00:22:55;;;;;;;8.13;2.30;;;;;;;8.21;78.86;97547.53;4987073;28;20050;-48
2023/10/27 00:25:23;;;;;;;85.97;6.00;;;;;;;8.21;79.54;97550.13;4998353;28;20101;-50
2023/10/27 00:27:50;;;;;;;19.55;4.03;;;;;;;8.20;78.93;97545.00;4983147;28;20043;-51
2023/10/27 00:30:17;;;;;;;48.72;4.32;;;;;;;8.18;79.75;97552.78;4994770;28;20064;-45
2023/10/27 00:32:43;;;;;;;6.85;3.38;;;;;;;8.15;79.46;97555.50;4988796;28;20583;-44
2023/10/27 00:35:10;;;;;;;6.90;5.30;;;;;;;8.13;79.17;97553.84;4987864;28;20050;-50
2023/10/27 00:37:38;;;;;;;5.65;3.67;;;;;;;8.12;78.96;97555.59;4987810;28;20077;-53
2023/10/27 00:40:05;;;;;;;12.93;4.43;;;;;;;8.11;78.73;97553.91;4990021;28;20050;-45
2023/10/27 00:42:32;;;;;;;18.05;3.33;;;;;;;8.12;78.72;97552.16;4986669;28;20050;-45
2023/10/27 00:44:58;;;;;;;25.30;2.60;;;;;;;8.10;79.38;97549.63;4988459;28;20050;-48
2023/10/27 00:47:26;;;;;;;19.65;4.15;;;;;;;8.09;79.54;97550.53;4972201;28;20122;-51
2023/10/27 00:49:55;;;;;;;13.82;4.13;;;;;;;8.08;79.20;97551.44;4972086;28;20054;-51
2023/10/27 00:52:24;;;;;;;7.65;4.28;;;;;;;8.08;78.76;97543.69;4973641;28;20074;-52
2023/10/27 00:54:52;;;;;;;7.00;2.92;;;;;;;8.07;79.76;97536.88;4975710;28;20431;-55
2023/10/27 00:57:22;;;;;;;9.52;2.22;;;;;;;8.06;79.62;97536.00;4969178;28;20483;-48
2023/10/27 00:59:50;;;;;;;4.53;4.03;;;;;;;8.07;78.85;97534.28;4971325;28;20049;-46
2023/10/27 01:02:18;;;;;;;5.57;2.20;;;;;;;8.06;79.53;97533.44;4974123;28;20050;-54
2023/10/27 01:04:45;;;;;;;7.38;3.65;;;;;;;8.05;79.66;97529.19;4997451;28;20038;-52
2023/10/27 01:07:13;;;;;;;5.13;3.17;;;;;;;8.06;79.88;97524.84;4992776;28;20066;-52
2023/10/27 01:09:40;;;;;;;6.10;1.92;;;;;;;8.07;79.34;97531.72;4999643;28;20411;-55
2023/10/27 01:12:07;;;;;;;7.35;3.15;;;;;;;8.06;78.57;97530.00;4990082;28;20080;-49
2023/10/27 01:14:33;;;;;;;4.95;3.10;;;;;;;8.05;79.39;97533.47;4987519;28;20054;-54
2023/10/27 01:17:00;;;;;;;7.95;3.28;;;;;;;8.02;78.92;97529.28;4990118;28;20045;-49
2023/10/27 01:19:27;;;;;;;4.75;3.10;;;;;;;8.03;79.86;97535.25;4991967;28;20061;-45
2023/10/27 01:21:54;;;;;;;9.65;2.83;;;;;;;8.02;79.64;97536.16;4993896;28;20061;-51
2023/10/27 01:24:22;;;;;;;5.55;3.17;;;;;;;8.01;79.51;97537.06;4987620;28;20053;-50
2023/10/27 01:26:49;;;;;;;4.80;2.47;;;;;;;8.01;78.89;97537.91;4991628;28;20474;-51
2023/10/27 01:29:16;;;;;;;6.55;3.30;;;;;;;8.02;79.05;97533.56;4991158;28;20049;-49
2023/10/27 01:31:43;;;;;;;8.93;3.75;;;;;;;8.02;79.08;97529.28;4987088;28;20057;-51
2023/10/27 01:34:10;;;;;;;7.93;3.25;;;;;;;8.03;79.77;97535.25;4991922;28;20499;-49
2023/10/27 01:36:37;;;;;;;8.95;1.60;;;;;;;8.03;78.85;97530.94;4999782;28;20054;-46
2023/10/27 01:39:03;;;;;;;6.22;2.92;;;;;;;8.04;78.88;97530.06;4995145;28;20113;-47
2023/10/27 01:41:30;;;;;;;9.23;2.63;;;;;;;8.06;79.56;97530.84;4999829;28;20038;-52
2023/10/27 01:43:57;;;;;;;6.43;3.53;;;;;;;8.09;78.84;97529.91;4990583;28;20050;-52
2023/10/27 01:46:24;;;;;;;6.03;1.65;;;;;;;8.13;79.33;97525.47;4994202;28;20451;-51
2023/10/27 01:48:50;;;;;;;4.43;1.42;;;;;;;8.15;79.19;97527.13;4984342;28;20482;-49
2023/10/27 01:51:17;;;;;;;40.13;2.33;;;;;;;8.13;79.00;97541.81;4990345;28;20455;-49
2023/10/27 01:53:44;;;;;;;45.60;3.17;;;;;;;8.12;78.89;97532.38;4996574;28;20049;-47
2023/10/27 01:56:11;;;;;;;26.02;3.30;;;;;;;8.12;78.90;97529.81;4996546;28;20065;-48
2023/10/27 01:58:43;;;;;;;46.08;4.22;;;;;;;8.13;79.41;97526.34;4986895;28;20043;-48
2023/10/27 02:01:14;;;;;;;52.67;2.63;;;;;;;8.15;79.12;97529.72;4980476;28;20472;-51
2023/10/27 02:03:41;;;;;;;21.65;3.47;;;;;;;8.14;79.67;97522.84;4993803;28;20046;-55
2023/10/27 02:06:08;;;;;;;7.97;2.70;;;;;;;8.17;79.08;97520.19;4981566;28;20085;-49
2023/10/27 02:08:35;;;;;;;5.25;3.15;;;;;;;8.17;79.65;97525.34;4997617;28;20042;-55
2023/10/27 02:11:03;;;;;;;4.95;2.97;;;;;;;8.19;79.47;97526.13;4997231;28;20058;-47
2023/10/27 02:13:29;;;;;;;4.13;2.80;;;;;;;8.19;79.30;97528.72;4987592;28;20058;-52
2023/10/27 02:15:56;;;;;;;27.67;4.20;;;;;;;8.19;79.83;97523.56;4993977;28;20699;-45
2023/10/27 02:18:23;;;;;;;18.95;3.45;;;;;;;8.20;79.04;97520.06;4987880;28;20115;-48
2023/10/27 02:20:49;;;;;;;4.30;1.83;;;;;;;8.19;79.63;97520.13;4991175;28;20054;-45
2023/10/27 02:23:17;;;;;;;4.68;2.88;;;;;;;8.20;79.14;97514.91;4991745;28;20049;-41
2023/10/27 02:25:44;;;;;;;5.03;3.28;;;;;;;8.21;78.75;97513.19;4994402;28;20054;-56
2023/10/27 02:28:10;;;;;;;4.13;3.50;;;;;;;8.22;79.11;97510.56;4989502;28;20496;-44
2023/10/27 02:30:37;;;;;;;4.28;2.30;;;;;;;8.25;79.08;97508.75;4985347;28;20515;-47
2023/10/27 02:33:04;;;;;;;5.97;3.67;;;;;;;8.25;79.11;97509.63;4990201;28;20050;-53
2023/10/27 02:35:30;;;;;;;5.57;3.72;;;;;;;8.26;79.66;97505.28;4975954;28;20046;-51
2023/10/27 02:37:57;;;;;;;5.10;3.50;;;;;;;8.26;79.14;97502.69;4989067;28;20049;-56
2023/10/27 02:40:24;;;;;;;4.97;3.10;;;;;;;8.26;79.74;97502.69;4981587;28;20050;-46
2023/10/27 02:42:51;;;;;;;6.90;3.83;;;;;;;8.25;79.12;97508.75;4990542;28;20057;-48
2023/10/27 02:45:17;;;;;;;5.82;3.65;;;;;;;8.21;78.70;97503.72;4992971;28;20038;-47
2023/10/27 02:47:44;;;;;;;8.93;3.53;;;;;;;8.16;79.08;97500.44;4992867;28;20046;-45
2023/10/27 02:50:11;;;;;;;9.80;1.95;;;;;;;8.12;79.59;97504.03;4989825;28;20502;-48
2023/10/27 02:52:38;;;;;;;9.25;3.75;;;;;;;8.07;78.75;97503.34;4986203;28;20050;-53
2023/10/27 02:55:05;;;;;;;11.68;2.28;;;;;;;8.03;79.17;97504.31;4989489;28;20439;-54
2023/10/27 02:57:32;;;;;;;12.05;4.03;;;;;;;7.97;79.27;97501.06;4984886;28;20085;-50
2023/10/27 02:59:59;;;;;;;27.33;2.67;;;;;;;7.93;79.26;97494.31;4976864;28;20514;-49
2023/10/27 03:02:27;;;;;;;17.85;2.22;;;;;;;7.91;79.67;97495.28;4996596;28;20140;-51
2023/10/27 03:04:56;;;;;;;40.50;2.47;;;;;;;7.87;78.48;97499.69;4994671;28;20058;-48
2023/10/27 03:07:23;;;;;;;53.33;3.08;;;;;;;7.84;78.79;97499.81;4987940;28;20042;-50
2023/10/27 03:09:50;;;;;;;42.25;5.18;;;;;;;7.81;79.39;97497.31;4980850;28;20073;-51
2023/10/27 03:12:17;;;;;;;14.18;2.28;;;;;;;7.80;78.90;97498.22;4991819;28;20046;-49
2023/10/27 03:14:44;;;;;;;25.65;2.90;;;;;;;7.78;79.58;97502.56;4993459;28;20483;-55
2023/10/27 03:17:10;;;;;;;20.90;2.20;;;;;;;7.76;78.65;97496.59;4989788;28;20384;-47
2023/10/27 03:19:37;;;;;;;11.25;2.20;;;;;;;7.74;79.40;97495.81;4995862;28;20046;-50
2023/10/27 03:22:04;;;;;;;9.27;3.22;;;;;;;7.72;78.51;97496.72;4992515;28;20491;-53
2023/10/27 03:24:31;;;;;;;8.50;3.33;;;;;;;7.71;79.48;97496.78;4988349;28;20124;-43
2023/10/27 03:26:58;;;;;;;9.18;3.60;;;;;;;7.70;79.38;97498.50;4990305;28;20053;-48
2023/10/27 03:29:25;;;;;;;12.50;3.63;;;;;;;7.69;78.58;97496.81;4992918;28;20042;-44
2023/10/27 03:31:51;;;;;;;5.25;2.10;;;;;;;7.70;79.75;97501.06;4994780;28;20053;-41
2023/10/27 03:34:18;;;;;;;10.68;3.53;;;;;;;7.72;79.70;97499.31;4998602;28;20053;-46
2023/10/27 03:36:45;;;;;;;7.20;4.13;;;;;;;7.74;79.08;97503.56;4993163;28;20126;-53
2023/10/27 03:39:12;;;;;;;10.05;2.38;;;;;;;7.75;78.34;97500.06;4991121;28;20462;-48
2023/10/27 03:41:39;;;;;;;5.78;3.33;;;;;;;7.75;79.41;97497.50;4993555;28;20049;-52
2023/10/27 03:44:06;;;;;;;7.95;3.38;;;;;;;7.77;78.48;97503.47;4991706;28;20057;-53
2023/10/27 03:46:33;;;;;;;7.22;4.13;;;;;;;7.79;78.77;97492.22;4998385;28;20077;-54
2023/10/27 03:49:00;;;;;;;6.97;3.75;;;;;;;7.82;78.61;97499.00;4996466;28;20050;-49
2023/10/27 03:51:27;;;;;;;5.53;3.40;;;;;;;7.83;78.54;97498.09;4995124;28;20070;-47
2023/10/27 03:53:54;;;;;;;6.05;3.10;;;;;;;7.86;79.64;97487.69;4990174;28;20066;-49
2023/10/27 03:56:21;;;;;;;8.40;3.75;;;;;;;7.88;78.98;97491.06;4993620;28;20057;-50
2023/10/27 03:58:48;;;;;;;7.32;3.72;;;;;;;7.90;79.75;97499.56;4994917;28;20070;-49
2023/10/27 04:01:15;;;;;;;7.93;2.70;;;;;;;7.92;79.05;97492.66;4988590;28;20056;-48
2023/10/27 04:03:42;;;;;;;5.07;3.85;;;;;;;7.95;78.78;97494.28;4996391;28;20521;-51
2023/10/27 04:06:11;;;;;;;6.82;4.50;;;;;;;7.96;79.02;97486.50;4992535;28;20189;-54
2023/10/27 04:08:38;;;;;;;4.85;3.42;;;;;;;8.00;78.73;97489.81;4991944;28;20054;-46
2023/10/27 04:11:04;;;;;;;8.90;3.85;;;;;;;8.02;79.85;97492.34;4991928;28;20050;-48
2023/10/27 04:13:31;;;;;;;5.90;4.50;;;;;;;7.99;79.52;97498.44;4995680;28;20053;-53
2023/10/27 04:15:58;;;;;;;7.03;2.53;;;;;;;7.97;78.71;97505.38;4989581;28;20141;-44
2023/10/27 04:18:24;;;;;;;6.97;3.55;;;;;;;7.96;78.96;97499.38;4993469;28;20065;-44
2023/10/27 04:20:51;;;;;;;5.65;3.60;;;;;;;7.96;79.58;97501.13;4991212;28;20508;-45
2023/10/27 04:23:18;;;;;;;6.60;5.35;;;;;;;7.93;78.61;97504.63;4983205;28;20054;-54
2023/10/27 04:25:45;;;;;;;6.15;1.88;;;;;;;7.94;78.35;97506.31;4981318;28;20046;-47
2023/10/27 04:28:11;;;;;;;4.18;2.30;;;;;;;7.95;78.42;97502.88;4992288;28;20050;-44
2023/10/27 04:30:38;;;;;;;4.32;3.20;;;;;;;7.97;79.02;97500.22;4992326;28;20078;-41
2023/10/27 04:33:05;;;;;;;5.20;2.17;;;;;;;7.97;79.14;97501.06;4986700;28;20053;-54
2023/10/27 04:35:33;;;;;;;4.68;2.33;;;;;;;7.98;78.91;97502.75;4991001;28;20722;-51
2023/10/27 04:37:59;;;;;;;7.22;2.10;;;;;;;8.01;78.60;97500.97;4991222;28;20041;-50
2023/10/27 04:40:28;;;;;;;6.70;1.95;;;;;;;8.03;78.98;97501.75;4988572;28;20084;-40
2023/10/27 04:42:58;;;;;;;6.18;2.17;;;;;;;8.03;79.29;97504.31;4992299;28;20133;-53
2023/10/27 04:45:25;;;;;;;9.73;3.85;;;;;;;8.04;79.40;97496.53;4996437;28;20054;-49
2023/10/27 04:47:52;;;;;;;9.38;3.50;;;;;;;8.04;78.56;97500.88;4999333;28;20049;-45
2023/10/27 04:50:19;;;;;;;10.30;3.95;;;;;;;8.04;78.63;97490.56;4988580;28;20666;-49
2023/10/27 04:52:46;;;;;;;12.23;4.47;;;;;;;8.05;79.44;97499.97;5004026;28;20072;-47
2023/10/27 04:55:13;;;;;;;7.45;3.70;;;;;;;8.08;79.74;97502.44;4997533;28;20054;-51
2023/10/27 04:57:41;;;;;;;7.70;3.45;;;;;;;8.09;78.76;97498.97;4988580;28;20053;-52
2023/10/27 05:00:09;;;;;;;6.35;2.10;;;;;;;8.11;79.69;97497.19;4990352;28;20513;-53
2023/10/27 05:02:36;;;;;;;7.50;3.80;;;;;;;8.15;78.92;97506.50;4987062;28;20133;-51
2023/10/27 05:05:03;;;;;;;8.95;3.60;;;;;;;8.18;79.03;97503.81;4990395;28;20054;-54
2023/10/27 05:07:30;;;;;;;5.93;3.33;;;;;;;8.18;79.62;97496.06;4995175;28;21000;-48
2023/10/27 05:09:57;;;;;;;6.40;4.45;;;;;;;8.20;79.56;97502.03;4993821;28;20053;-49
2023/10/27 05:12:24;;;;;;;7.32;3.92;;;;;;;8.20;79.90;97496.88;4990948;28;20056;-50
2023/10/27 05:14:50;;;;;;;8.30;4.07;;;;;;;8.21;79.02;97497.72;4991597;28;20066;-50
2023/10/27 05:17:17;;;;;;;6.25;3.50;;;;;;;8.22;79.30;97500.25;4999000;28;20053;-45
2023/10/27 05:19:44;;;;;;;8.13;2.90;;;;;;;8.21;79.92;97493.38;4994116;28;20144;-53
2023/10/27 05:22:13;;;;;;;6.18;3.58;;;;;;;8.22;79.78;97492.53;4990725;28;20108;-45
2023/10/27 05:24:41;;;;;;;6.45;2.75;;;;;;;8.25;79.26;97493.28;5001556;28;20454;-50
2023/10/27 05:27:08;;;;;;;5.85;4.40;;;;;;;8.23;79.59;97491.63;4988982;28;20046;-50
2023/10/27 05:29:35;;;;;;;5.82;4.10;;;;;;;8.23;79.15;97493.34;4994581;28;20041;-42
2023/10/27 05:32:01;;;;;;;6.13;3.50;;;;;;;8.22;79.97;97495.09;4986850;28;20147;-46
2023/10/27 05:34:28;;;;;;;6.18;3.38;;;;;;;8.21;79.92;97492.56;5000135;28;20048;-50
2023/10/27 05:36:58;;;;;;;8.18;3.67;;;;;;;8.18;78.94;97492.66;4990224;28;20145;-51
2023/10/27 05:39:26;;;;;;;7.38;3.05;;;;;;;8.16;79.36;97495.28;4990782;28;20049;-51
2023/10/27 05:41:53;;;;;;;5.25;3.40;;;;;;;8.12;79.06;97493.72;4991036;28;20054;-49
2023/10/27 05:44:20;;;;;;;6.35;3.70;;;;;;;8.09;79.51;97494.66;4990959;28;20042;-50
2023/10/27 05:46:47;;;;;;;5.88;3.88;;;;;;;8.08;78.96;97486.97;4994605;28;20056;-52
2023/10/27 05:49:14;;;;;;;9.55;3.40;;;;;;;8.04;78.73;97485.41;4996265;28;20089;-50
2023/10/27 05:51:40;;;;;;;6.35;3.83;;;;;;;8.00;78.69;97483.81;4999638;28;20080;-47
2023/10/27 05:54:07;;;;;;;5.93;4.15;;;;;;;7.97;78.62;97488.19;4991927;28;20113;-47
2023/10/27 05:56:34;;;;;;;6.00;1.98;;;;;;;7.95;78.94;97487.41;4996951;28;20443;-47
2023/10/27 05:59:00;;;;;;;8.07;4.22;;;;;;;7.92;79.07;97482.34;4999686;28;20062;-45
2023/10/27 06:01:27;;;;;;;5.93;4.05;;;;;;;7.91;79.40;97480.63;4986414;28;20518;-46
2023/10/27 06:03:57;;;;;;;7.32;4.03;;;;;;;7.88;79.11;97480.75;4988672;28;20077;-46
2023/10/27 06:06:26;;;;;;;9.20;4.50;;;;;;;7.86;79.12;97482.53;4996165;28;20490;-49
2023/10/27 06:08:53;;;;;;;8.48;4.35;;;;;;;7.83;78.92;97477.47;5004783;28;20042;-46
2023/10/27 06:11:20;;;;;;;6.05;3.83;;;;;;;7.81;78.84;97482.69;4991068;28;20060;-49
2023/10/27 06:13:47;;;;;;;8.52;5.22;;;;;;;7.79;79.87;97483.63;4994988;28;20052;-46
2023/10/27 06:16:13;;;;;;;8.15;3.13;;;;;;;7.80;79.73;97482.75;4982024;28;20042;-51
2023/10/27 06:18:41;;;;;;;10.48;5.53;;;;;;;7.79;79.57;97481.03;4984749;28;20492;-54
2023/10/27 06:21:07;;;;;;;7.78;4.95;;;;;;;7.79;79.72;97478.47;4982377;28;20667;-47
2023/10/27 06:23:34;;;;;;;9.68;5.18;;;;;;;7.80;80.35;97480.19;4990028;28;20050;-46
2023/10/27 06:26:02;;;;;;;6.20;4.00;;;;;;;7.80;78.78;97482.75;4987695;28;20092;-45
2023/10/27 06:28:28;;;;;;;6.53;3.08;;;;;;;7.81;78.96;97489.59;4991620;28;20487;-50
2023/10/27 06:30:55;;;;;;;6.72;4.45;;;;;;;7.80;79.16;97485.34;4990339;28;20058;-52
2023/10/27 06:33:22;;;;;;;8.43;3.88;;;;;;;7.81;79.98;97489.59;4989162;28;20146;-48
2023/10/27 06:35:49;;;;;;;5.95;2.70;;;;;;;7.81;79.52;97487.81;5002194;28;20506;-50
2023/10/27 06:38:16;;;;;;;23.73;8.18;;;;;;;7.82;79.88;97489.53;4999225;28;20074;-48
2023/10/27 06:40:42;;;;;;;51.00;13.63;;;;;;;7.85;79.30;97506.63;4991487;28;20058;-50
2023/10/27 06:43:09;;;;;;;35.25;11.85;;;;;;;7.86;79.63;97500.56;4993610;28;20073;-41
2023/10/27 06:45:36;;;;;;;9.02;4.78;;;;;;;7.88;79.11;97511.69;4987475;28;20133;-52
2023/10/27 06:48:02;;;;;;;10.15;2.88;;;;;;;7.92;79.53;97507.25;4986611;28;21670;-54
2023/10/27 06:50:29;;;;;;;6.30;4.40;;;;;;;7.93;80.45;97508.94;4987925;28;20236;-51
2023/10/27 06:52:56;;;;;;;4.57;3.08;;;;;;;7.96;80.46;97514.84;4979952;28;20046;-52
2023/10/27 06:55:23;;;;;;;6.97;4.10;;;;;;;8.00;80.25;97514.75;4984583;28;20069;-50
2023/10/27 06:57:49;;;;;;;8.55;4.25;;;;;;;8.03;79.81;97514.63;4987313;28;20047;-47
2023/10/27 07:00:16;;;;;;;4.78;3.58;;;;;;;8.07;80.32;97521.41;4982754;28;20050;-47
2023/10/27 07:02:43;;;;;;;4.85;3.30;;;;;;;8.10;79.28;97526.44;4980248;28;20046;-52
2023/10/27 07:05:23;;;;;;;5.88;2.25;;;;;;;8.12;80.07;97529.81;4983694;28;20113;-49
2023/10/27 07:07:51;;;;;;;8.40;3.47;;;;;;;8.14;80.18;97540.91;4986352;28;20051;-49
2023/10/27 07:10:18;;;;;;;6.45;3.70;;;;;;;8.16;80.22;97546.88;4985696;28;20183;-47
2023/10/27 07:12:45;;;;;;;7.63;4.30;;;;;;;8.17;80.29;97548.53;4984934;28;20046;-50
2023/10/27 07:15:13;;;;;;;8.35;3.35;;;;;;;8.16;79.47;97557.19;4980861;28;20046;-50
2023/10/27 07:17:41;;;;;;;6.05;3.67;;;;;;;8.17;79.73;97551.13;4964797;28;20054;-44
2023/10/27 07:20:08;;;;;;;6.63;3.80;;;;;;;8.16;79.77;97562.34;4978777;28;20058;-54
2023/10/27 07:22:36;;;;;;;6.40;3.65;;;;;;;8.17;79.23;97561.44;4980958;28;20416;-42
2023/10/27 07:25:04;;;;;;;5.22;3.45;;;;;;;8.20;79.73;97570.78;4982672;28;20057;-49
2023/10/27 07:27:31;;;;;;;6.80;3.42;;;;;;;8.22;79.54;97572.47;4983032;28;20100;-53
2023/10/27 07:29:58;;;;;;;6.63;3.65;;;;;;;8.25;80.09;97560.34;4978831;28;20050;-47
2023/10/27 07:32:24;;;;;;;8.27;3.10;;;;;;;8.29;80.19;97567.06;4984906;28;20491;-48
2023/10/27 07:34:51;;;;;;;6.00;3.45;;;;;;;8.31;79.70;97568.72;4984990;28;20053;-47
2023/10/27 07:37:20;;;;;;;4.90;2.13;;;;;;;8.35;80.18;97564.31;4978517;28;20042;-41
2023/10/27 07:39:47;;;;;;;5.88;3.88;;;;;;;8.39;80.63;97568.47;4985062;28;20129;-47
2023/10/27 07:42:14;;;;;;;5.10;4.57;;;;;;;8.43;79.77;97570.03;4995034;28;20499;-53
2023/10/27 07:44:41;;;;;;;4.80;2.28;;;;;;;8.47;80.21;97569.03;4989581;28;20050;-46
2023/10/27 07:47:09;;;;;;;6.35;3.92;;;;;;;8.52;79.72;97568.03;4976664;28;20073;-48
2023/10/27 07:49:35;;;;;;;8.70;5.03;;;;;;;8.55;79.76;97563.63;4984549;28;20049;-52
2023/10/27 07:52:03;;;;;;;6.80;3.17;;;;;;;8.60;79.54;97571.22;4985312;28;20074;-52
2023/10/27 07:54:31;;;;;;;5.70;3.92;;;;;;;8.65;80.60;97579.63;4984599;28;20077;-45
2023/10/27 07:56:59;;;;;;;6.90;4.28;;;;;;;8.69;80.07;97586.41;4989958;28;20050;-48
2023/10/27 07:59:27;;;;;;;4.47;3.28;;;;;;;8.72;80.12;97588.84;4984846;28;20046;-49
2023/10/27 08:01:57;;;;;;;4.88;3.13;;;;;;;8.76;80.08;97586.16;4995208;28;20053;-57
2023/10/27 08:04:27;;;;;;;5.63;3.47;;;;;;;8.80;79.93;97600.66;4991099;28;20054;-41
2023/10/27 08:06:54;;;;;;;5.95;3.55;;;;;;;8.84;79.99;97594.47;4996189;28;20054;-48
2023/10/27 08:09:20;;;;;;;6.15;3.80;;;;;;;8.88;79.86;97590.91;4993316;28;20046;-50
2023/10/27 08:11:49;;;;;;;6.32;2.33;;;;;;;8.94;80.21;97585.53;4985336;28;20054;-42
2023/10/27 08:14:16;;;;;;;7.85;3.33;;;;;;;9.00;79.56;97580.16;4981013;28;20062;-46
2023/10/27 08:16:44;;;;;;;6.85;4.18;;;;;;;9.12;80.35;97572.88;4970019;28;20090;-46
2023/10/27 08:19:11;;;;;;;8.90;4.20;;;;;;;9.33;80.07;97575.53;4971738;28;20134;-47
2023/10/27 08:21:40;;;;;;;7.18;4.25;;;;;;;9.70;80.84;97568.97;4980465;28;20658;-43
2023/10/27 08:24:08;;;;;;;13.02;4.93;;;;;;;10.06;79.54;97574.47;4974068;28;20051;-50
2023/10/27 08:26:35;;;;;;;7.15;3.08;;;;;;;10.29;79.60;97576.97;4968523;28;20129;-52
2023/10/27 08:29:02;;;;;;;6.10;3.80;;;;;;;10.40;79.37;97578.25;4968875;28;20077;-52
2023/10/27 08:31:29;;;;;;;6.25;3.40;;;;;;;10.41;79.13;97579.94;4965388;28;20571;-46
2023/10/27 08:33:59;;;;;;;7.55;3.72;;;;;;;10.38;78.61;97580.06;4965733;28;20050;-44
2023/10/27 08:36:27;;;;;;;5.63;2.95;;;;;;;10.36;78.89;97576.69;4964065;28;20047;-51
2023/10/27 08:38:54;;;;;;;6.82;3.75;;;;;;;10.34;79.04;97578.50;4968214;28;20060;-53
2023/10/27 08:41:25;;;;;;;12.65;5.50;;;;;;;10.40;79.49;97567.88;4973892;28;20055;-47
2023/10/27 08:43:52;;;;;;;9.10;3.38;;;;;;;10.48;78.58;97560.69;4951693;28;20452;-48
2023/10/27 08:46:20;;;;;;;6.65;4.07;;;;;;;10.53;78.64;97569.09;4961958;28;20061;-49
2023/10/27 08:48:47;;;;;;;6.90;4.82;;;;;;;10.55;78.58;97566.44;4966814;28;20122;-49
2023/10/27 08:51:15;;;;;;;6.05;3.42;;;;;;;10.63;78.92;97579.06;4967114;28;20500;-47
2023/10/27 08:53:44;;;;;;;7.13;3.55;;;;;;;10.66;79.74;97573.75;4973816;28;20058;-46
2023/10/27 08:56:12;;;;;;;10.18;3.75;;;;;;;10.66;78.73;97577.19;4980507;28;20050;-41
2023/10/27 08:58:40;;;;;;;7.47;3.47;;;;;;;10.63;79.23;97579.06;4979859;28;20054;-51
2023/10/27 09:01:07;;;;;;;7.65;4.20;;;;;;;10.60;79.94;97584.38;4997610;28;20090;-46
2023/10/27 09:03:34;;;;;;;6.65;4.20;;;;;;;10.59;79.68;97593.03;4995205;28;20038;-46
2023/10/27 09:06:00;;;;;;;7.47;4.25;;;;;;;10.57;79.14;97600.03;5002837;28;20057;-50
2023/10/27 09:08:27;;;;;;;5.82;1.77;;;;;;;10.53;79.34;97594.97;4988205;28;20046;-49
2023/10/27 09:10:55;;;;;;;6.03;3.40;;;;;;;10.52;79.02;97595.91;4992093;28;20051;-45
2023/10/27 09:13:22;;;;;;;6.22;3.95;;;;;;;10.51;78.94;97590.78;4993873;28;20077;-51
2023/10/27 09:15:51;;;;;;;9.80;3.40;;;;;;;10.46;79.84;97598.72;4993431;28;20060;-45
2023/10/27 09:18:33;;;;;;;5.55;2.92;;;;;;;10.40;79.45;97593.75;4996019;28;20055;-42
2023/10/27 09:21:00;;;;;;;7.30;2.95;;;;;;;10.39;79.52;97594.69;4988285;28;20050;-52
2023/10/27 09:23:43;;;;;;;8.02;2.63;;;;;;;10.35;79.94;97587.94;4987527;28;20054;-43
2023/10/27 09:26:09;;;;;;;4.32;2.80;;;;;;;10.39;79.95;97592.09;4994506;28;20054;-48
2023/10/27 09:28:36;;;;;;;11.23;2.58;;;;;;;10.39;78.83;97597.25;4991614;28;20089;-42
2023/10/27 09:31:03;;;;;;;4.95;1.98;;;;;;;10.39;79.01;97586.91;4987172;28;20451;-46
2023/10/27 09:33:30;;;;;;;5.30;2.90;;;;;;;10.41;80.04;97593.69;4992250;28;20137;-43
2023/10/27 09:35:59;;;;;;;9.10;3.45;;;;;;;10.44;79.73;97591.91;4985207;28;20058;-50
2023/10/27 09:38:27;;;;;;;4.43;3.17;;;;;;;10.47;79.97;97590.06;4996972;28;20220;-51
2023/10/27 09:40:56;;;;;;;10.65;3.65;;;;;;;10.52;80.08;97582.97;4987169;28;20054;-51
2023/10/27 09:43:23;;;;;;;15.27;2.78;;;;;;;10.57;80.41;97589.69;4990345;28;20058;-55
2023/10/27 09:45:53;;;;;;;8.73;1.35;;;;;;;10.59;79.21;97593.03;4989450;28;20408;-48
2023/10/27 09:48:27;;;;;;;9.13;2.95;;;;;;;10.57;79.81;97589.69;4992113;28;20042;-48
2023/10/27 09:53:31;;;;;;;14.48;1.40;;;;;;;10.56;79.61;97593.16;5032367;28;20909;-53
2023/10/27 09:55:59;;;;;;;3.15;1.63;;;;;;;10.54;79.40;97591.47;4997128;28;20143;-48
2023/10/27 09:58:30;;;;;;;8.35;2.35;;;;;;;10.54;79.71;97594.06;4993965;28;20059;-48
2023/10/27 10:00:58;;;;;;;6.00;2.78;;;;;;;10.55;79.32;97592.34;4996561;28;20518;-52
2023/10/27 10:03:27;;;;;;;6.35;1.55;;;;;;;10.61;79.99;97586.06;4994205;28;20061;-53
2023/10/27 10:06:14;;;;;;;2.42;1.58;;;;;;;10.64;79.35;97586.75;4996061;28;20495;-48
2023/10/27 10:09:01;;;;;;;3.30;1.10;;;;;;;10.68;80.01;97587.47;4983840;28;20061;-51
2023/10/27 10:11:53;;;;;;;4.65;2.28;;;;;;;10.71;79.04;97587.31;4999933;28;20041;-50
2023/10/27 10:17:13;;;;;;;4.13;1.58;;;;;;;10.90;79.17;97586.53;5044054;28;20749;-51
2023/10/27 10:19:50;;;;;;;5.60;1.65;;;;;;;10.94;79.61;97582.91;5022709;28;20515;-46
2023/10/27 10:30:48;;;;;;;2.90;1.02;;;;;;;11.00;79.46;97577.47;5052964;27;20411;-49
2023/10/27 10:33:16;;;;;;;5.63;1.00;;;;;;;11.04;79.89;97573.81;5040733;28;20132;-50
2023/10/27 10:35:44;;;;;;;5.25;1.27;;;;;;;11.09;79.70;97577.94;5041643;28;20045;-47
2023/10/27 10:41:02;;;;;;;3.58;1.60;;;;;;;11.26;79.19;97583.22;5043348;27;20417;-46
2023/10/27 10:43:41;;;;;;;3.92;1.15;;;;;;;11.38;80.04;97586.19;5023557;28;20037;-48
2023/10/27 10:46:11;;;;;;;7.18;1.92;;;;;;;11.53;79.66;97585.47;5015053;28;20053;-52
2023/10/27 10:48:42;;;;;;;;;;;;;;;11.57;79.27;97581.81;5019035;28;20050;-48
2023/10/27 10:51:12;;;;;;;6.70;1.90;;;;;;;11.70;79.50;97586.44;5019134;28;20375;-46
2023/10/27 10:53:38;;;;;;;5.65;1.45;;;;;;;11.70;78.36;97584.69;5011914;28;20141;-50
2023/10/27 10:56:06;;;;;;;4.55;1.40;;;;;;;11.70;78.40;97584.69;5021051;28;20060;-44
2023/10/27 10:58:35;;;;;;;6.85;1.38;;;;;;;11.71;79.13;97577.72;5022412;28;20058;-47
2023/10/27 11:01:03;;;;;;;8.90;1.63;;;;;;;11.69;79.26;97584.75;5020181;28;20524;-45
2023/10/27 11:03:33;;;;;;;5.03;1.80;;;;;;;11.69;78.95;97582.16;5016314;28;20104;-49
2023/10/27 11:06:02;;;;;;;6.38;2.25;;;;;;;11.72;80.03;97575.97;5019628;28;20045;-44
2023/10/27 11:08:32;;;;;;;3.53;1.92;;;;;;;11.74;79.53;97575.00;5018716;28;20116;-46
2023/10/27 11:11:07;;;;;;;4.18;1.77;;;;;;;11.78;79.84;97571.34;5020850;28;20061;-51
2023/10/27 11:13:52;;;;;;;3.58;1.42;;;;;;;11.76;79.25;97570.56;5015657;28;20550;-49
2023/10/27 11:16:22;;;;;;;6.18;2.58;;;;;;;11.86;79.34;97575.31;5020052;28;20140;-47
2023/10/27 11:18:53;;;;;;;4.72;2.28;;;;;;;11.94;79.30;97571.47;5015846;28;20045;-53
2023/10/27 11:21:23;;;;;;;7.32;2.92;;;;;;;12.01;78.93;97573.72;5018549;28;20514;-45
2023/10/27 11:23:51;;;;;;;6.00;1.58;;;;;;;12.08;79.00;97572.56;5018396;28;20049;-51
2023/10/27 11:26:20;;;;;;;4.93;1.90;;;;;;;12.15;79.51;97575.69;5017625;28;20065;-49
2023/10/27 11:28:47;;;;;;;3.10;1.25;;;;;;;12.20;78.85;97568.53;5012561;28;20469;-52
2023/10/27 11:31:26;;;;;;;4.03;1.08;;;;;;;12.14;79.40;97568.81;5038176;28;20050;-49
2023/10/27 11:36:42;;;;;;;4.78;2.67;;;;;;;12.18;78.06;97571.19;5071014;27;20916;-46
2023/10/27 11:39:25;;;;;;;6.07;3.35;;;;;;;12.18;78.63;97565.16;5020816;28;20144;-44
2023/10/27 11:41:58;;;;;;;5.45;2.88;;;;;;;12.23;78.61;97558.00;5014148;28;20049;-47
2023/10/27 11:44:25;;;;;;;4.60;2.95;;;;;;;12.25;79.46;97568.28;5038584;28;20052;-47
2023/10/27 11:46:56;;;;;;;6.03;3.30;;;;;;;12.23;78.19;97568.38;5038695;28;20064;-47
2023/10/27 11:49:24;;;;;;;10.73;4.03;;;;;;;12.22;78.73;97571.88;5068206;28;20049;-49
2023/10/27 11:51:55;;;;;;;7.88;4.95;;;;;;;12.25;79.38;97571.72;5039016;28;20045;-52
2023/10/27 11:54:23;;;;;;;6.55;2.47;;;;;;;12.28;79.23;97569.00;5039204;28;20465;-42
2023/10/27 11:56:50;;;;;;;9.50;4.85;;;;;;;12.33;78.64;97567.00;5038101;28;20068;-52
2023/10/27 11:59:18;;;;;;;6.82;3.30;;;;;;;12.40;79.27;97569.28;5039639;28;20513;-47
2023/10/27 12:01:45;;;;;;;7.13;3.95;;;;;;;12.44;78.54;97565.63;5070174;28;20053;-48